This is the latest recevied weather packets stored in our database for station/object DM4XI-13. If no packets are shown the sender has not sent any weather packets the latest 10 day(s).
| Time | Temp. | Humidity | Pressure | Rain* | Wind** | Luminosity | Snow |
|---|---|---|---|---|---|---|---|
| 1777619299 | 11.67° C | 47% | 1026.4 hPa | 0 mm | 0 m/s | 257 W/m² | - |
| 1777619238 | 11.67° C | 47% | 1026.3 hPa | 0 mm | 0.45 m/s, 118° | 295 W/m² | - |
| 1777619177 | 11.67° C | 47% | 1026.4 hPa | 0 mm | 0.45 m/s, 157° | 76 W/m² | - |
| 1777619116 | 11.67° C | 48% | 1026.4 hPa | 0 mm | 0 m/s | 290 W/m² | - |
| 1777619055 | 11.67° C | 47% | 1026.4 hPa | 0 mm | 0.45 m/s, 215° | 286 W/m² | - |
| 1777618995 | 11.11° C | 47% | 1026.3 hPa | 0 mm | 0.45 m/s, 147° | 285 W/m² | - |
| 1777618934 | 11.11° C | 46% | 1026.4 hPa | 0 mm | 0 m/s | 76 W/m² | - |
| 1777618873 | 11.11° C | 47% | 1026.3 hPa | 0 mm | 0.45 m/s, 73° | 280 W/m² | - |
| 1777618812 | 11.11° C | 47% | 1026.5 hPa | 0 mm | 0 m/s | 278 W/m² | - |
| 1777618750 | 11.11° C | 47% | 1026.4 hPa | 0 mm | 0.45 m/s, 127° | 277 W/m² | - |
| 1777618689 | 11.11° C | 47% | 1026.1 hPa | 0 mm | 0 m/s | 272 W/m² | - |
| 1777618628 | 11.11° C | 47% | 1026.4 hPa | 0 mm | 0.45 m/s, 207° | 270 W/m² | - |
| 1777618567 | 11.11° C | 49% | 1026.4 hPa | 0 mm | 0.45 m/s, 142° | 268 W/m² | - |
| 1777618506 | 11.11° C | 48% | 1026.5 hPa | 0 mm | 0.45 m/s, 93° | 266 W/m² | - |
| 1777618445 | 11.11° C | 47% | 1026.4 hPa | 0 mm | 0 m/s | 264 W/m² | - |
| 1777618385 | 11.11° C | 48% | 1026.4 hPa | 0 mm | 0.45 m/s, 167° | 47 W/m² | - |
| 1777618325 | 10.56° C | 48% | 1026.4 hPa | 0 mm | 0.45 m/s, 137° | 259 W/m² | - |
| 1777618262 | 10.56° C | 49% | 1026.4 hPa | 0 mm | 0.45 m/s, 249° | 259 W/m² | - |
| 1777618205 | 10.56° C | 48% | 1026.4 hPa | 0 mm | 0 m/s | 254 W/m² | - |
| 1777618140 | 11.11° C | 47% | 1026.3 hPa | 0 mm | 0.45 m/s, 335° | 252 W/m² | - |
| 1777618079 | 11.11° C | 47% | 1026.5 hPa | 0 mm | 0.45 m/s, 2° | 250 W/m² | - |
| 1777618018 | 11.11° C | 47% | 1026.3 hPa | 0 mm | 0 m/s | 277 W/m² | - |
| 1777617957 | 11.11° C | 46% | 1026.4 hPa | 0 mm | 0.45 m/s, 302° | 246 W/m² | - |
| 1777617896 | 10.56° C | 46% | 1026.4 hPa | 0 mm | 0.45 m/s, 20° | 243 W/m² | - |
| 1777617835 | 10.56° C | 48% | 1026.4 hPa | 0 mm | 0 m/s | 240 W/m² | - |
* Rain latest hour (hover to see other rain measurements)
** Current wind speed in m/s (hover to see current wind gust speed)